< < Back
Terminal Aerodrome Forecast


Current Version              Previous Versions:   1  2  3  4  5  6  7  8  9  

Terminal Aerodrome Forecast

969
FTUS44 KHUN 091539 AAB
TAFHSV
TAF AMD
KHSV 091539Z 0916/1012 30013KT P6SM -SHSN SCT020 BKN040
     FM100200 30010KT P6SM OVC025
     FM100700 30006KT P6SM SCT030=

Latest METAR

766
SAUS80 KWBC 100600 RRA
MTRHSV
METAR KHSV 100553Z 32006KT 10SM OVC055 M04/M11 A3011 RMK AO2 SLP201 LAST
60000 T10391106 11022 21039 400111039 50004


USA.gov is the U.S. government's official web portal to all federal, state and local government web resources and services.